sensor_id;sensor_type;location;lat;lon;timestamp;P1;durP1;ratioP1;P2;durP2;ratioP2
18647;SDS011;9453;50.294;18.644;2023-03-21T05:00:44;34.97;;;16.20;;
18647;SDS011;9453;50.294;18.644;2023-03-21T05:03:11;35.63;;;16.73;;
18647;SDS011;9453;50.294;18.644;2023-03-21T05:05:43;31.03;;;15.03;;
18647;SDS011;9453;50.294;18.644;2023-03-21T05:08:12;24.13;;;12.83;;
18647;SDS011;9453;50.294;18.644;2023-03-21T05:10:39;26.90;;;13.13;;
18647;SDS011;9453;50.294;18.644;2023-03-21T05:13:06;27.17;;;13.33;;
18647;SDS011;9453;50.294;18.644;2023-03-21T05:15:33;25.50;;;12.87;;
18647;SDS011;9453;50.294;18.644;2023-03-21T05:18:02;21.10;;;11.23;;
18647;SDS011;9453;50.294;18.644;2023-03-21T05:20:35;28.33;;;13.77;;
18647;SDS011;9453;50.294;18.644;2023-03-21T05:23:06;33.40;;;16.40;;
18647;SDS011;9453;50.294;18.644;2023-03-21T05:25:35;32.87;;;15.57;;
18647;SDS011;9453;50.294;18.644;2023-03-21T05:28:02;24.30;;;12.80;;
18647;SDS011;9453;50.294;18.644;2023-03-21T05:30:31;20.97;;;11.13;;
18647;SDS011;9453;50.294;18.644;2023-03-21T05:32:58;22.00;;;11.03;;
18647;SDS011;9453;50.294;18.644;2023-03-21T05:35:27;19.40;;;10.37;;
18647;SDS011;9453;50.294;18.644;2023-03-21T05:37:54;19.50;;;10.37;;
18647;SDS011;9453;50.294;18.644;2023-03-21T05:40:21;19.53;;;10.00;;
18647;SDS011;9453;50.294;18.644;2023-03-21T05:42:48;19.23;;;9.63;;
18647;SDS011;9453;50.294;18.644;2023-03-21T05:45:15;16.90;;;9.07;;
18647;SDS011;9453;50.294;18.644;2023-03-21T05:47:42;22.87;;;10.80;;
18647;SDS011;9453;50.294;18.644;2023-03-21T05:50:10;18.20;;;9.87;;
18647;SDS011;9453;50.294;18.644;2023-03-21T05:52:38;17.10;;;8.93;;
18647;SDS011;9453;50.294;18.644;2023-03-21T05:55:06;16.57;;;8.90;;
18647;SDS011;9453;50.294;18.644;2023-03-21T05:57:33;15.37;;;8.87;;
18647;SDS011;9453;50.294;18.644;2023-03-21T06:00:04;19.00;;;9.33;;
18647;SDS011;9453;50.294;18.644;2023-03-21T06:02:32;17.83;;;9.50;;
18647;SDS011;9453;50.294;18.644;2023-03-21T06:04:59;17.43;;;9.17;;
18647;SDS011;9453;50.294;18.644;2023-03-21T06:07:26;18.23;;;8.97;;
18647;SDS011;9453;50.294;18.644;2023-03-21T06:09:54;18.27;;;9.60;;
18647;SDS011;9453;50.294;18.644;2023-03-21T06:12:21;17.03;;;9.37;;
18647;SDS011;9453;50.294;18.644;2023-03-21T06:14:48;14.47;;;8.07;;
18647;SDS011;9453;50.294;18.644;2023-03-21T06:17:15;18.07;;;9.93;;
18647;SDS011;9453;50.294;18.644;2023-03-21T06:19:42;16.87;;;9.50;;
18647;SDS011;9453;50.294;18.644;2023-03-21T06:22:09;18.53;;;9.63;;
18647;SDS011;9453;50.294;18.644;2023-03-21T06:24:37;20.80;;;10.60;;
18647;SDS011;9453;50.294;18.644;2023-03-21T06:27:06;23.10;;;11.00;;
18647;SDS011;9453;50.294;18.644;2023-03-21T06:29:33;19.87;;;10.73;;
18647;SDS011;9453;50.294;18.644;2023-03-21T06:32:00;24.10;;;10.63;;
18647;SDS011;9453;50.294;18.644;2023-03-21T06:34:27;18.33;;;9.43;;
18647;SDS011;9453;50.294;18.644;2023-03-21T06:36:55;19.57;;;9.90;;
18647;SDS011;9453;50.294;18.644;2023-03-21T06:39:22;18.47;;;10.07;;
18647;SDS011;9453;50.294;18.644;2023-03-21T06:41:50;17.40;;;9.00;;
18647;SDS011;9453;50.294;18.644;2023-03-21T06:44:19;19.33;;;10.27;;
18647;SDS011;9453;50.294;18.644;2023-03-21T06:46:46;15.07;;;8.10;;
18647;SDS011;9453;50.294;18.644;2023-03-21T06:49:13;17.50;;;9.27;;
18647;SDS011;9453;50.294;18.644;2023-03-21T06:51:41;16.53;;;8.60;;
18647;SDS011;9453;50.294;18.644;2023-03-21T06:54:08;17.60;;;9.00;;
18647;SDS011;9453;50.294;18.644;2023-03-21T06:56:35;16.60;;;8.67;;
18647;SDS011;9453;50.294;18.644;2023-03-21T06:59:03;17.70;;;9.33;;
18647;SDS011;9453;50.294;18.644;2023-03-21T07:01:31;15.63;;;8.37;;
18647;SDS011;9453;50.294;18.644;2023-03-21T07:03:58;17.97;;;9.77;;
18647;SDS011;9453;50.294;18.644;2023-03-21T07:06:26;15.33;;;9.10;;
18647;SDS011;9453;50.294;18.644;2023-03-21T07:08:54;18.47;;;9.53;;
18647;SDS011;9453;50.294;18.644;2023-03-21T07:11:22;20.37;;;10.63;;
18647;SDS011;9453;50.294;18.644;2023-03-21T07:13:49;18.90;;;9.97;;
18647;SDS011;9453;50.294;18.644;2023-03-21T07:16:17;20.03;;;11.00;;
18647;SDS011;9453;50.294;18.644;2023-03-21T07:18:47;19.70;;;10.00;;
18647;SDS011;9453;50.294;18.644;2023-03-21T07:21:14;19.20;;;10.40;;
18647;SDS011;9453;50.294;18.644;2023-03-21T07:23:42;21.03;;;9.70;;
18647;SDS011;9453;50.294;18.644;2023-03-21T07:26:11;21.10;;;11.27;;
18647;SDS011;9453;50.294;18.644;2023-03-21T07:28:40;18.57;;;10.27;;
18647;SDS011;9453;50.294;18.644;2023-03-21T07:31:07;19.20;;;11.30;;
18647;SDS011;9453;50.294;18.644;2023-03-21T07:33:33;25.10;;;13.57;;
18647;SDS011;9453;50.294;18.644;2023-03-21T07:36:02;25.40;;;12.73;;
18647;SDS011;9453;50.294;18.644;2023-03-21T07:38:29;22.57;;;12.80;;
18647;SDS011;9453;50.294;18.644;2023-03-21T07:40:57;23.03;;;11.70;;
18647;SDS011;9453;50.294;18.644;2023-03-21T07:43:25;19.83;;;11.67;;
18647;SDS011;9453;50.294;18.644;2023-03-21T07:45:55;23.93;;;11.57;;
18647;SDS011;9453;50.294;18.644;2023-03-21T07:48:23;23.10;;;12.40;;
18647;SDS011;9453;50.294;18.644;2023-03-21T07:50:50;25.87;;;13.10;;
18647;SDS011;9453;50.294;18.644;2023-03-21T07:53:19;23.90;;;12.63;;
18647;SDS011;9453;50.294;18.644;2023-03-21T07:55:48;22.57;;;11.27;;
18647;SDS011;9453;50.294;18.644;2023-03-21T07:58:16;22.90;;;12.53;;
18647;SDS011;9453;50.294;18.644;2023-03-21T08:00:43;27.07;;;12.63;;
18647;SDS011;9453;50.294;18.644;2023-03-21T08:03:10;26.53;;;14.07;;
18647;SDS011;9453;50.294;18.644;2023-03-21T08:05:37;23.97;;;12.40;;
18647;SDS011;9453;50.294;18.644;2023-03-21T08:08:06;23.53;;;13.23;;
18647;SDS011;9453;50.294;18.644;2023-03-21T08:10:35;27.47;;;13.63;;
18647;SDS011;9453;50.294;18.644;2023-03-21T08:13:02;33.60;;;15.00;;
18647;SDS011;9453;50.294;18.644;2023-03-21T08:15:29;30.90;;;15.43;;
18647;SDS011;9453;50.294;18.644;2023-03-21T08:17:57;27.10;;;13.63;;
18647;SDS011;9453;50.294;18.644;2023-03-21T08:20:24;29.63;;;14.00;;
18647;SDS011;9453;50.294;18.644;2023-03-21T08:22:52;30.47;;;14.57;;
18647;SDS011;9453;50.294;18.644;2023-03-21T08:25:20;28.67;;;15.10;;
18647;SDS011;9453;50.294;18.644;2023-03-21T08:30:40;32.87;;;14.90;;
18647;SDS011;9453;50.294;18.644;2023-03-21T08:33:09;34.77;;;17.07;;
18647;SDS011;9453;50.294;18.644;2023-03-21T08:35:39;36.33;;;17.50;;
18647;SDS011;9453;50.294;18.644;2023-03-21T08:38:06;34.83;;;16.33;;
18647;SDS011;9453;50.294;18.644;2023-03-21T08:40:34;36.90;;;18.43;;
18647;SDS011;9453;50.294;18.644;2023-03-21T08:43:01;39.53;;;18.57;;
18647;SDS011;9453;50.294;18.644;2023-03-21T08:45:29;35.07;;;18.23;;
18647;SDS011;9453;50.294;18.644;2023-03-21T08:47:56;35.40;;;18.50;;
18647;SDS011;9453;50.294;18.644;2023-03-21T08:50:23;34.50;;;18.70;;
18647;SDS011;9453;50.294;18.644;2023-03-21T08:52:53;42.80;;;21.37;;
18647;SDS011;9453;50.294;18.644;2023-03-21T08:55:20;41.83;;;21.33;;
18647;SDS011;9453;50.294;18.644;2023-03-21T08:57:47;38.13;;;19.13;;
18647;SDS011;9453;50.294;18.644;2023-03-21T09:00:15;49.27;;;21.10;;
18647;SDS011;9453;50.294;18.644;2023-03-21T09:02:47;43.90;;;20.93;;
18647;SDS011;9453;50.294;18.644;2023-03-21T09:05:16;45.13;;;21.43;;
18647;SDS011;9453;50.294;18.644;2023-03-21T09:07:43;44.80;;;22.77;;
18647;SDS011;9453;50.294;18.644;2023-03-21T09:10:11;47.93;;;21.03;;
18647;SDS011;9453;50.294;18.644;2023-03-21T09:12:40;45.27;;;21.77;;
18647;SDS011;9453;50.294;18.644;2023-03-21T09:15:07;52.33;;;23.50;;
18647;SDS011;9453;50.294;18.644;2023-03-21T09:17:36;49.20;;;21.30;;
18647;SDS011;9453;50.294;18.644;2023-03-21T09:20:11;39.50;;;20.53;;
18647;SDS011;9453;50.294;18.644;2023-03-21T09:22:42;44.70;;;21.67;;
18647;SDS011;9453;50.294;18.644;2023-03-21T09:25:10;43.87;;;20.57;;
18647;SDS011;9453;50.294;18.644;2023-03-21T09:27:38;47.43;;;22.13;;
18647;SDS011;9453;50.294;18.644;2023-03-21T09:30:07;43.40;;;21.13;;
18647;SDS011;9453;50.294;18.644;2023-03-21T09:32:35;40.20;;;19.90;;
18647;SDS011;9453;50.294;18.644;2023-03-21T09:35:02;52.43;;;24.03;;
18647;SDS011;9453;50.294;18.644;2023-03-21T09:37:33;45.00;;;22.40;;
18647;SDS011;9453;50.294;18.644;2023-03-21T09:40:07;47.53;;;22.90;;
18647;SDS011;9453;50.294;18.644;2023-03-21T09:42:42;48.77;;;23.47;;
18647;SDS011;9453;50.294;18.644;2023-03-21T09:45:25;48.57;;;21.83;;
18647;SDS011;9453;50.294;18.644;2023-03-21T09:47:59;49.57;;;21.53;;
18647;SDS011;9453;50.294;18.644;2023-03-21T09:50:28;50.67;;;21.40;;
18647;SDS011;9453;50.294;18.644;2023-03-21T09:52:59;43.37;;;21.23;;
18647;SDS011;9453;50.294;18.644;2023-03-21T09:55:30;44.33;;;21.90;;
18647;SDS011;9453;50.294;18.644;2023-03-21T09:58:01;40.20;;;19.20;;
18647;SDS011;9453;50.294;18.644;2023-03-21T10:00:33;33.27;;;17.47;;
18647;SDS011;9453;50.294;18.644;2023-03-21T10:03:11;34.73;;;18.40;;
18647;SDS011;9453;50.294;18.644;2023-03-21T10:05:48;42.60;;;20.37;;
18647;SDS011;9453;50.294;18.644;2023-03-21T10:08:19;37.03;;;19.10;;
18647;SDS011;9453;50.294;18.644;2023-03-21T10:10:52;38.47;;;20.70;;
18647;SDS011;9453;50.294;18.644;2023-03-21T10:13:23;43.43;;;20.90;;
18647;SDS011;9453;50.294;18.644;2023-03-21T10:15:53;38.13;;;19.87;;
18647;SDS011;9453;50.294;18.644;2023-03-21T10:18:23;41.30;;;19.63;;
18647;SDS011;9453;50.294;18.644;2023-03-21T10:20:52;36.03;;;19.60;;
18647;SDS011;9453;50.294;18.644;2023-03-21T10:23:21;43.47;;;19.70;;
18647;SDS011;9453;50.294;18.644;2023-03-21T10:25:52;39.13;;;18.67;;
18647;SDS011;9453;50.294;18.644;2023-03-21T10:28:24;32.63;;;18.10;;
18647;SDS011;9453;50.294;18.644;2023-03-21T10:30:53;33.47;;;17.83;;
18647;SDS011;9453;50.294;18.644;2023-03-21T10:33:22;39.13;;;18.60;;
18647;SDS011;9453;50.294;18.644;2023-03-21T10:35:52;34.30;;;17.07;;
18647;SDS011;9453;50.294;18.644;2023-03-21T10:38:24;36.07;;;17.50;;
18647;SDS011;9453;50.294;18.644;2023-03-21T10:40:51;33.17;;;16.33;;
18647;SDS011;9453;50.294;18.644;2023-03-21T10:43:30;34.50;;;17.07;;
18647;SDS011;9453;50.294;18.644;2023-03-21T10:46:04;30.10;;;16.37;;
18647;SDS011;9453;50.294;18.644;2023-03-21T10:48:34;30.73;;;16.80;;
18647;SDS011;9453;50.294;18.644;2023-03-21T10:51:04;33.37;;;15.53;;
18647;SDS011;9453;50.294;18.644;2023-03-21T10:53:36;28.83;;;14.87;;
18647;SDS011;9453;50.294;18.644;2023-03-21T10:56:06;27.97;;;14.07;;
18647;SDS011;9453;50.294;18.644;2023-03-21T10:58:37;25.70;;;13.87;;
18647;SDS011;9453;50.294;18.644;2023-03-21T11:01:10;27.47;;;14.10;;
18647;SDS011;9453;50.294;18.644;2023-03-21T11:03:41;27.73;;;13.47;;
18647;SDS011;9453;50.294;18.644;2023-03-21T11:06:12;26.23;;;13.90;;
18647;SDS011;9453;50.294;18.644;2023-03-21T11:08:44;29.70;;;14.83;;
18647;SDS011;9453;50.294;18.644;2023-03-21T11:11:23;27.30;;;15.30;;
18647;SDS011;9453;50.294;18.644;2023-03-21T11:13:55;36.00;;;17.20;;
18647;SDS011;9453;50.294;18.644;2023-03-21T11:16:25;28.03;;;15.73;;
18647;SDS011;9453;50.294;18.644;2023-03-21T11:19:00;29.27;;;14.43;;
18647;SDS011;9453;50.294;18.644;2023-03-21T11:21:34;31.63;;;15.77;;
18647;SDS011;9453;50.294;18.644;2023-03-21T11:24:04;31.67;;;16.90;;
18647;SDS011;9453;50.294;18.644;2023-03-21T11:27:04;35.43;;;18.90;;
18647;SDS011;9453;50.294;18.644;2023-03-21T11:29:34;33.87;;;17.13;;
18647;SDS011;9453;50.294;18.644;2023-03-21T11:32:08;35.87;;;18.60;;
18647;SDS011;9453;50.294;18.644;2023-03-21T11:34:40;32.50;;;15.57;;
18647;SDS011;9453;50.294;18.644;2023-03-21T11:37:16;24.30;;;14.33;;
18647;SDS011;9453;50.294;18.644;2023-03-21T11:39:47;26.07;;;14.37;;
18647;SDS011;9453;50.294;18.644;2023-03-21T11:42:24;27.17;;;14.17;;
18647;SDS011;9453;50.294;18.644;2023-03-21T11:44:58;22.97;;;13.70;;
18647;SDS011;9453;50.294;18.644;2023-03-21T11:47:28;24.13;;;13.10;;
18647;SDS011;9453;50.294;18.644;2023-03-21T11:49:55;21.57;;;12.33;;
18647;SDS011;9453;50.294;18.644;2023-03-21T11:52:25;20.50;;;11.33;;
18647;SDS011;9453;50.294;18.644;2023-03-21T11:55:05;25.43;;;13.23;;
18647;SDS011;9453;50.294;18.644;2023-03-21T11:57:46;23.40;;;12.70;;
18647;SDS011;9453;50.294;18.644;2023-03-21T12:00:23;25.47;;;13.70;;
18647;SDS011;9453;50.294;18.644;2023-03-21T12:03:04;24.47;;;12.47;;
18647;SDS011;9453;50.294;18.644;2023-03-21T12:05:52;20.10;;;11.57;;
18647;SDS011;9453;50.294;18.644;2023-03-21T12:08:24;22.60;;;13.27;;
18647;SDS011;9453;50.294;18.644;2023-03-21T12:11:03;24.73;;;12.00;;
18647;SDS011;9453;50.294;18.644;2023-03-21T12:13:41;21.83;;;11.53;;
18647;SDS011;9453;50.294;18.644;2023-03-21T12:16:22;22.43;;;12.73;;
18647;SDS011;9453;50.294;18.644;2023-03-21T12:19:00;25.43;;;12.73;;
18647;SDS011;9453;50.294;18.644;2023-03-21T12:21:38;19.43;;;11.60;;
18647;SDS011;9453;50.294;18.644;2023-03-21T12:24:13;27.27;;;14.73;;
18647;SDS011;9453;50.294;18.644;2023-03-21T12:26:47;25.37;;;13.83;;
18647;SDS011;9453;50.294;18.644;2023-03-21T12:29:23;26.60;;;13.60;;
18647;SDS011;9453;50.294;18.644;2023-03-21T12:32:05;23.83;;;12.20;;
18647;SDS011;9453;50.294;18.644;2023-03-21T12:34:48;22.43;;;12.07;;
18647;SDS011;9453;50.294;18.644;2023-03-21T12:37:29;21.90;;;12.17;;
18647;SDS011;9453;50.294;18.644;2023-03-21T12:43:32;22.73;;;11.67;;
18647;SDS011;9453;50.294;18.644;2023-03-21T12:46:09;20.63;;;11.40;;
18647;SDS011;9453;50.294;18.644;2023-03-21T12:48:51;20.87;;;11.43;;
18647;SDS011;9453;50.294;18.644;2023-03-21T12:51:29;20.37;;;11.83;;
18647;SDS011;9453;50.294;18.644;2023-03-21T12:54:01;21.90;;;10.87;;
18647;SDS011;9453;50.294;18.644;2023-03-21T12:56:42;18.27;;;10.02;;
18647;SDS011;9453;50.294;18.644;2023-03-21T12:59:19;25.17;;;12.73;;
18647;SDS011;9453;50.294;18.644;2023-03-21T13:01:53;21.07;;;11.30;;
18647;SDS011;9453;50.294;18.644;2023-03-21T13:04:31;19.03;;;11.40;;
18647;SDS011;9453;50.294;18.644;2023-03-21T13:07:05;17.07;;;9.50;;
18647;SDS011;9453;50.294;18.644;2023-03-21T13:09:35;20.77;;;10.67;;
18647;SDS011;9453;50.294;18.644;2023-03-21T13:12:19;17.67;;;10.70;;
18647;SDS011;9453;50.294;18.644;2023-03-21T13:17:55;22.50;;;10.68;;
18647;SDS011;9453;50.294;18.644;2023-03-21T13:20:29;18.10;;;10.70;;
18647;SDS011;9453;50.294;18.644;2023-03-21T13:23:03;20.53;;;10.20;;
18647;SDS011;9453;50.294;18.644;2023-03-21T13:25:35;19.27;;;10.27;;
18647;SDS011;9453;50.294;18.644;2023-03-21T13:28:11;19.53;;;10.67;;
18647;SDS011;9453;50.294;18.644;2023-03-21T13:30:45;18.00;;;10.50;;
18647;SDS011;9453;50.294;18.644;2023-03-21T13:33:14;15.23;;;9.67;;
18647;SDS011;9453;50.294;18.644;2023-03-21T13:35:49;19.55;;;9.85;;
18647;SDS011;9453;50.294;18.644;2023-03-21T13:38:23;18.17;;;10.55;;
18647;SDS011;9453;50.294;18.644;2023-03-21T13:40:55;17.55;;;9.38;;
18647;SDS011;9453;50.294;18.644;2023-03-21T13:43:31;22.77;;;10.73;;
18647;SDS011;9453;50.294;18.644;2023-03-21T13:46:09;14.25;;;8.73;;
18647;SDS011;9453;50.294;18.644;2023-03-21T13:48:42;16.60;;;9.82;;
18647;SDS011;9453;50.294;18.644;2023-03-21T13:51:10;16.75;;;9.68;;
18647;SDS011;9453;50.294;18.644;2023-03-21T13:53:37;16.23;;;9.93;;
18647;SDS011;9453;50.294;18.644;2023-03-21T13:56:13;17.45;;;9.65;;
18647;SDS011;9453;50.294;18.644;2023-03-21T13:58:50;20.77;;;10.82;;
18647;SDS011;9453;50.294;18.644;2023-03-21T14:01:29;20.42;;;10.85;;
18647;SDS011;9453;50.294;18.644;2023-03-21T14:04:08;21.25;;;11.82;;
18647;SDS011;9453;50.294;18.644;2023-03-21T14:06:41;18.67;;;9.40;;
18647;SDS011;9453;50.294;18.644;2023-03-21T14:09:14;19.02;;;10.48;;
18647;SDS011;9453;50.294;18.644;2023-03-21T14:11:47;17.65;;;9.85;;
18647;SDS011;9453;50.294;18.644;2023-03-21T14:14:16;17.48;;;9.88;;
18647;SDS011;9453;50.294;18.644;2023-03-21T14:16:46;18.73;;;10.52;;
18647;SDS011;9453;50.294;18.644;2023-03-21T14:22:41;16.63;;;9.55;;
18647;SDS011;9453;50.294;18.644;2023-03-21T14:25:14;15.33;;;9.17;;
18647;SDS011;9453;50.294;18.644;2023-03-21T14:27:42;15.90;;;9.45;;
18647;SDS011;9453;50.294;18.644;2023-03-21T14:30:19;16.63;;;8.88;;
18647;SDS011;9453;50.294;18.644;2023-03-21T14:32:50;19.02;;;10.75;;
18647;SDS011;9453;50.294;18.644;2023-03-21T14:35:20;15.32;;;9.50;;
18647;SDS011;9453;50.294;18.644;2023-03-21T14:37:47;21.98;;;10.60;;
18647;SDS011;9453;50.294;18.644;2023-03-21T14:40:19;17.88;;;8.93;;
18647;SDS011;9453;50.294;18.644;2023-03-21T14:42:48;20.38;;;10.20;;
18647;SDS011;9453;50.294;18.644;2023-03-21T14:45:17;22.23;;;10.53;;
18647;SDS011;9453;50.294;18.644;2023-03-21T14:47:58;18.30;;;11.20;;
18647;SDS011;9453;50.294;18.644;2023-03-21T14:50:31;22.70;;;11.63;;
18647;SDS011;9453;50.294;18.644;2023-03-21T14:53:05;20.60;;;11.03;;
18647;SDS011;9453;50.294;18.644;2023-03-21T14:55:34;22.33;;;11.70;;
18647;SDS011;9453;50.294;18.644;2023-03-21T14:58:09;27.70;;;11.80;;
18647;SDS011;9453;50.294;18.644;2023-03-21T15:00:38;19.00;;;11.37;;
18647;SDS011;9453;50.294;18.644;2023-03-21T15:03:07;20.87;;;10.90;;
18647;SDS011;9453;50.294;18.644;2023-03-21T15:05:37;18.77;;;11.30;;
18647;SDS011;9453;50.294;18.644;2023-03-21T15:08:07;20.27;;;11.47;;
18647;SDS011;9453;50.294;18.644;2023-03-21T15:10:39;26.47;;;12.67;;
18647;SDS011;9453;50.294;18.644;2023-03-21T15:13:12;25.27;;;12.03;;
18647;SDS011;9453;50.294;18.644;2023-03-21T15:15:41;24.27;;;12.83;;
18647;SDS011;9453;50.294;18.644;2023-03-21T15:18:12;24.97;;;11.50;;
18647;SDS011;9453;50.294;18.644;2023-03-21T15:20:42;24.67;;;12.17;;
18647;SDS011;9453;50.294;18.644;2023-03-21T15:23:13;22.27;;;11.33;;
18647;SDS011;9453;50.294;18.644;2023-03-21T15:25:48;22.83;;;12.13;;
18647;SDS011;9453;50.294;18.644;2023-03-21T15:28:16;25.37;;;13.10;;
18647;SDS011;9453;50.294;18.644;2023-03-21T15:30:46;22.40;;;13.17;;
18647;SDS011;9453;50.294;18.644;2023-03-21T15:33:15;22.33;;;12.77;;
18647;SDS011;9453;50.294;18.644;2023-03-21T15:35:44;22.20;;;12.10;;
18647;SDS011;9453;50.294;18.644;2023-03-21T15:38:21;22.40;;;12.77;;
18647;SDS011;9453;50.294;18.644;2023-03-21T15:43:39;46.93;;;19.70;;
18647;SDS011;9453;50.294;18.644;2023-03-21T15:49:26;26.83;;;14.13;;
18647;SDS011;9453;50.294;18.644;2023-03-21T15:52:00;31.60;;;14.83;;
18647;SDS011;9453;50.294;18.644;2023-03-21T15:54:31;25.30;;;14.10;;
18647;SDS011;9453;50.294;18.644;2023-03-21T15:57:02;34.30;;;17.30;;
18647;SDS011;9453;50.294;18.644;2023-03-21T15:59:34;35.73;;;18.47;;
18647;SDS011;9453;50.294;18.644;2023-03-21T16:02:13;31.53;;;15.90;;
18647;SDS011;9453;50.294;18.644;2023-03-21T16:04:56;33.20;;;16.97;;
18647;SDS011;9453;50.294;18.644;2023-03-21T16:07:26;34.60;;;18.30;;
18647;SDS011;9453;50.294;18.644;2023-03-21T16:09:57;36.40;;;19.03;;
18647;SDS011;9453;50.294;18.644;2023-03-21T16:12:26;38.07;;;18.63;;
18647;SDS011;9453;50.294;18.644;2023-03-21T16:14:53;33.60;;;17.87;;
18647;SDS011;9453;50.294;18.644;2023-03-21T16:17:27;34.40;;;18.53;;
18647;SDS011;9453;50.294;18.644;2023-03-21T16:20:02;43.27;;;18.87;;
18647;SDS011;9453;50.294;18.644;2023-03-21T16:22:37;34.83;;;18.33;;
18647;SDS011;9453;50.294;18.644;2023-03-21T16:25:05;28.53;;;14.87;;
18647;SDS011;9453;50.294;18.644;2023-03-21T16:27:33;25.17;;;14.10;;
18647;SDS011;9453;50.294;18.644;2023-03-21T16:30:00;25.93;;;14.17;;
18647;SDS011;9453;50.294;18.644;2023-03-21T16:32:27;32.53;;;16.43;;
18647;SDS011;9453;50.294;18.644;2023-03-21T16:34:54;40.40;;;19.97;;
18647;SDS011;9453;50.294;18.644;2023-03-21T16:37:22;37.23;;;19.20;;
18647;SDS011;9453;50.294;18.644;2023-03-21T16:39:49;35.40;;;17.33;;
18647;SDS011;9453;50.294;18.644;2023-03-21T16:42:16;33.23;;;17.13;;
18647;SDS011;9453;50.294;18.644;2023-03-21T16:44:43;31.03;;;16.50;;
18647;SDS011;9453;50.294;18.644;2023-03-21T16:47:12;32.27;;;16.53;;
18647;SDS011;9453;50.294;18.644;2023-03-21T16:49:41;28.33;;;14.90;;
18647;SDS011;9453;50.294;18.644;2023-03-21T16:52:09;27.00;;;14.97;;
18647;SDS011;9453;50.294;18.644;2023-03-21T16:54:38;24.23;;;12.80;;
18647;SDS011;9453;50.294;18.644;2023-03-21T16:57:05;25.37;;;14.47;;
18647;SDS011;9453;50.294;18.644;2023-03-21T16:59:40;23.43;;;13.13;;
18647;SDS011;9453;50.294;18.644;2023-03-21T17:02:10;24.27;;;13.37;;
18647;SDS011;9453;50.294;18.644;2023-03-21T17:04:39;29.57;;;15.57;;
18647;SDS011;9453;50.294;18.644;2023-03-21T17:07:08;36.80;;;19.03;;
18647;SDS011;9453;50.294;18.644;2023-03-21T17:09:41;33.17;;;16.23;;
18647;SDS011;9453;50.294;18.644;2023-03-21T17:12:09;31.27;;;16.00;;
18647;SDS011;9453;50.294;18.644;2023-03-21T17:14:38;31.80;;;16.07;;
18647;SDS011;9453;50.294;18.644;2023-03-21T17:17:05;27.47;;;14.73;;
18647;SDS011;9453;50.294;18.644;2023-03-21T17:19:35;28.83;;;15.07;;
18647;SDS011;9453;50.294;18.644;2023-03-21T17:22:04;24.90;;;13.63;;
18647;SDS011;9453;50.294;18.644;2023-03-21T17:24:31;27.23;;;14.67;;
18647;SDS011;9453;50.294;18.644;2023-03-21T17:27:00;31.77;;;16.33;;
18647;SDS011;9453;50.294;18.644;2023-03-21T17:29:29;34.63;;;17.23;;
18647;SDS011;9453;50.294;18.644;2023-03-21T17:31:56;38.33;;;19.33;;
18647;SDS011;9453;50.294;18.644;2023-03-21T17:34:23;40.23;;;19.67;;
18647;SDS011;9453;50.294;18.644;2023-03-21T17:36:50;38.07;;;18.60;;
18647;SDS011;9453;50.294;18.644;2023-03-21T17:39:17;36.20;;;17.63;;
18647;SDS011;9453;50.294;18.644;2023-03-21T17:41:46;37.50;;;17.73;;
18647;SDS011;9453;50.294;18.644;2023-03-21T17:44:15;48.97;;;22.10;;
18647;SDS011;9453;50.294;18.644;2023-03-21T17:46:43;44.60;;;20.73;;
18647;SDS011;9453;50.294;18.644;2023-03-21T17:49:13;39.10;;;18.97;;
18647;SDS011;9453;50.294;18.644;2023-03-21T17:51:41;34.80;;;18.47;;
18647;SDS011;9453;50.294;18.644;2023-03-21T17:54:10;44.40;;;21.07;;
18647;SDS011;9453;50.294;18.644;2023-03-21T17:56:38;42.93;;;20.07;;
18647;SDS011;9453;50.294;18.644;2023-03-21T17:59:06;39.63;;;19.40;;
18647;SDS011;9453;50.294;18.644;2023-03-21T18:01:38;39.30;;;19.97;;
18647;SDS011;9453;50.294;18.644;2023-03-21T18:04:05;37.70;;;18.13;;
18647;SDS011;9453;50.294;18.644;2023-03-21T18:06:32;34.43;;;17.63;;
18647;SDS011;9453;50.294;18.644;2023-03-21T18:09:01;37.70;;;17.00;;
18647;SDS011;9453;50.294;18.644;2023-03-21T18:11:31;37.97;;;19.50;;
18647;SDS011;9453;50.294;18.644;2023-03-21T18:13:59;55.43;;;24.00;;
18647;SDS011;9453;50.294;18.644;2023-03-21T18:16:25;41.97;;;21.50;;
18647;SDS011;9453;50.294;18.644;2023-03-21T18:18:54;42.03;;;21.03;;
18647;SDS011;9453;50.294;18.644;2023-03-21T18:21:21;40.67;;;19.57;;
18647;SDS011;9453;50.294;18.644;2023-03-21T18:23:48;38.57;;;18.27;;
18647;SDS011;9453;50.294;18.644;2023-03-21T18:26:16;35.53;;;18.10;;
18647;SDS011;9453;50.294;18.644;2023-03-21T18:28:44;48.13;;;23.27;;
18647;SDS011;9453;50.294;18.644;2023-03-21T18:31:15;53.63;;;23.83;;
18647;SDS011;9453;50.294;18.644;2023-03-21T18:33:43;49.17;;;21.83;;
18647;SDS011;9453;50.294;18.644;2023-03-21T18:36:13;39.87;;;20.53;;
18647;SDS011;9453;50.294;18.644;2023-03-21T18:38:42;52.07;;;23.60;;
18647;SDS011;9453;50.294;18.644;2023-03-21T18:41:10;47.00;;;21.87;;
18647;SDS011;9453;50.294;18.644;2023-03-21T18:43:37;47.17;;;21.33;;
18647;SDS011;9453;50.294;18.644;2023-03-21T18:46:05;45.03;;;21.80;;
18647;SDS011;9453;50.294;18.644;2023-03-21T18:48:32;36.47;;;18.60;;
18647;SDS011;9453;50.294;18.644;2023-03-21T18:50:59;35.77;;;17.43;;
18647;SDS011;9453;50.294;18.644;2023-03-21T18:53:28;35.17;;;16.80;;
18647;SDS011;9453;50.294;18.644;2023-03-21T18:55:54;31.00;;;15.87;;
18647;SDS011;9453;50.294;18.644;2023-03-21T18:58:22;32.60;;;15.67;;
18647;SDS011;9453;50.294;18.644;2023-03-21T19:00:49;48.30;;;22.53;;
18647;SDS011;9453;50.294;18.644;2023-03-21T19:03:17;57.43;;;26.70;;
18647;SDS011;9453;50.294;18.644;2023-03-21T19:05:44;56.37;;;25.97;;
18647;SDS011;9453;50.294;18.644;2023-03-21T19:08:11;58.80;;;26.27;;
18647;SDS011;9453;50.294;18.644;2023-03-21T19:10:40;55.43;;;24.97;;
18647;SDS011;9453;50.294;18.644;2023-03-21T19:13:07;58.97;;;26.87;;
18647;SDS011;9453;50.294;18.644;2023-03-21T19:15:34;58.20;;;26.43;;
18647;SDS011;9453;50.294;18.644;2023-03-21T19:18:02;68.40;;;29.93;;
18647;SDS011;9453;50.294;18.644;2023-03-21T19:20:29;66.70;;;29.97;;
18647;SDS011;9453;50.294;18.644;2023-03-21T19:22:56;68.77;;;30.27;;
18647;SDS011;9453;50.294;18.644;2023-03-21T19:25:23;66.37;;;30.50;;
18647;SDS011;9453;50.294;18.644;2023-03-21T19:27:51;68.30;;;30.33;;
18647;SDS011;9453;50.294;18.644;2023-03-21T19:30:18;64.90;;;29.97;;
18647;SDS011;9453;50.294;18.644;2023-03-21T19:32:46;58.90;;;27.53;;
18647;SDS011;9453;50.294;18.644;2023-03-21T19:35:12;59.47;;;26.17;;
18647;SDS011;9453;50.294;18.644;2023-03-21T19:37:39;59.00;;;26.60;;
18647;SDS011;9453;50.294;18.644;2023-03-21T19:40:07;58.03;;;26.17;;
18647;SDS011;9453;50.294;18.644;2023-03-21T19:42:35;49.20;;;23.93;;
18647;SDS011;9453;50.294;18.644;2023-03-21T19:45:03;44.13;;;21.57;;
18647;SDS011;9453;50.294;18.644;2023-03-21T19:47:31;38.93;;;20.27;;
18647;SDS011;9453;50.294;18.644;2023-03-21T19:49:58;46.87;;;21.57;;
18647;SDS011;9453;50.294;18.644;2023-03-21T19:52:25;44.10;;;21.87;;
18647;SDS011;9453;50.294;18.644;2023-03-21T19:54:52;41.40;;;21.40;;
18647;SDS011;9453;50.294;18.644;2023-03-21T19:57:19;40.63;;;19.87;;
18647;SDS011;9453;50.294;18.644;2023-03-21T19:59:46;54.07;;;25.90;;